sensor_id;sensor_type;location;lat;lon;timestamp;pressure;altitude;pressure_sealevel;temperature;humidity
35848;BME280;22332;51.954;20.118;2023-03-03T00:01:18;100587.52;;;-2.52;71.81
35848;BME280;22332;51.954;20.118;2023-03-03T00:04:25;100580.27;;;-2.54;72.00
35848;BME280;22332;51.954;20.118;2023-03-03T00:07:31;100577.36;;;-2.55;71.85
35848;BME280;22332;51.954;20.118;2023-03-03T00:10:37;100576.67;;;-2.55;72.27
35848;BME280;22332;51.954;20.118;2023-03-03T00:13:46;100569.95;;;-2.57;72.18
35848;BME280;22332;51.954;20.118;2023-03-03T00:16:53;100570.15;;;-2.58;72.20
35848;BME280;22332;51.954;20.118;2023-03-03T00:19:58;100572.08;;;-2.58;71.99
35848;BME280;22332;51.954;20.118;2023-03-03T00:23:15;100570.59;;;-2.60;71.97
35848;BME280;22332;51.954;20.118;2023-03-03T00:26:25;100566.13;;;-2.62;72.27
35848;BME280;22332;51.954;20.118;2023-03-03T00:29:34;100562.20;;;-2.63;72.04
35848;BME280;22332;51.954;20.118;2023-03-03T00:32:44;100560.54;;;-2.66;71.84
35848;BME280;22332;51.954;20.118;2023-03-03T00:35:50;100555.73;;;-2.72;71.86
35848;BME280;22332;51.954;20.118;2023-03-03T00:39:09;100558.02;;;-2.77;71.55
35848;BME280;22332;51.954;20.118;2023-03-03T00:42:16;100561.42;;;-2.70;71.86
35848;BME280;22332;51.954;20.118;2023-03-03T00:45:32;100560.50;;;-2.61;71.77
35848;BME280;22332;51.954;20.118;2023-03-03T00:48:44;100559.83;;;-2.57;71.68
35848;BME280;22332;51.954;20.118;2023-03-03T00:51:50;100555.23;;;-2.59;71.47
35848;BME280;22332;51.954;20.118;2023-03-03T00:54:56;100560.70;;;-2.65;71.41
35848;BME280;22332;51.954;20.118;2023-03-03T00:58:02;100561.78;;;-2.75;71.26
35848;BME280;22332;51.954;20.118;2023-03-03T01:01:10;100563.61;;;-2.73;71.59
35848;BME280;22332;51.954;20.118;2023-03-03T01:04:21;100560.02;;;-2.75;71.47
35848;BME280;22332;51.954;20.118;2023-03-03T01:07:27;100555.48;;;-2.74;71.56
35848;BME280;22332;51.954;20.118;2023-03-03T01:10:35;100554.80;;;-2.75;71.68
35848;BME280;22332;51.954;20.118;2023-03-03T01:13:43;100550.70;;;-2.77;71.62
35848;BME280;22332;51.954;20.118;2023-03-03T01:16:50;100538.37;;;-2.86;71.53
35848;BME280;22332;51.954;20.118;2023-03-03T01:19:56;100530.90;;;-2.91;71.62
35848;BME280;22332;51.954;20.118;2023-03-03T01:23:02;100529.21;;;-2.93;71.50
35848;BME280;22332;51.954;20.118;2023-03-03T01:26:08;100521.62;;;-2.99;71.34
35848;BME280;22332;51.954;20.118;2023-03-03T01:29:14;100518.48;;;-3.03;71.57
35848;BME280;22332;51.954;20.118;2023-03-03T01:32:20;100509.17;;;-3.05;71.76
35848;BME280;22332;51.954;20.118;2023-03-03T01:35:25;100508.67;;;-3.10;71.71
35848;BME280;22332;51.954;20.118;2023-03-03T01:38:35;100508.77;;;-3.17;71.32
35848;BME280;22332;51.954;20.118;2023-03-03T01:41:41;100512.09;;;-3.31;71.40
35848;BME280;22332;51.954;20.118;2023-03-03T01:44:47;100511.61;;;-3.32;71.60
35848;BME280;22332;51.954;20.118;2023-03-03T01:47:57;100514.63;;;-3.29;71.51
35848;BME280;22332;51.954;20.118;2023-03-03T01:51:10;100512.98;;;-3.32;71.27
35848;BME280;22332;51.954;20.118;2023-03-03T01:54:22;100512.27;;;-3.31;71.74
35848;BME280;22332;51.954;20.118;2023-03-03T01:57:35;100511.14;;;-3.29;71.45
35848;BME280;22332;51.954;20.118;2023-03-03T02:00:47;100503.55;;;-3.31;71.28
35848;BME280;22332;51.954;20.118;2023-03-03T02:03:55;100498.77;;;-3.33;71.79
35848;BME280;22332;51.954;20.118;2023-03-03T02:07:06;100500.73;;;-3.34;71.38
35848;BME280;22332;51.954;20.118;2023-03-03T02:10:16;100500.04;;;-3.35;71.64
35848;BME280;22332;51.954;20.118;2023-03-03T02:13:22;100504.73;;;-3.34;71.81
35848;BME280;22332;51.954;20.118;2023-03-03T02:16:28;100495.15;;;-3.34;71.58
35848;BME280;22332;51.954;20.118;2023-03-03T02:19:41;100495.38;;;-3.35;71.57
35848;BME280;22332;51.954;20.118;2023-03-03T02:22:52;100488.09;;;-3.36;71.56
35848;BME280;22332;51.954;20.118;2023-03-03T02:26:09;100480.39;;;-3.35;71.99
35848;BME280;22332;51.954;20.118;2023-03-03T02:29:16;100479.01;;;-3.35;71.85
35848;BME280;22332;51.954;20.118;2023-03-03T02:32:22;100485.61;;;-3.39;72.01
35848;BME280;22332;51.954;20.118;2023-03-03T02:35:34;100488.80;;;-3.36;72.12
35848;BME280;22332;51.954;20.118;2023-03-03T02:38:45;100482.02;;;-3.28;71.98
35848;BME280;22332;51.954;20.118;2023-03-03T02:41:56;100482.92;;;-3.19;71.64
35848;BME280;22332;51.954;20.118;2023-03-03T02:45:10;100484.72;;;-3.12;71.80
35848;BME280;22332;51.954;20.118;2023-03-03T02:48:15;100479.94;;;-3.05;71.73
35848;BME280;22332;51.954;20.118;2023-03-03T02:51:22;100478.48;;;-2.99;71.57
35848;BME280;22332;51.954;20.118;2023-03-03T02:54:29;100476.21;;;-2.95;71.56
35848;BME280;22332;51.954;20.118;2023-03-03T02:57:35;100477.29;;;-2.95;71.59
35848;BME280;22332;51.954;20.118;2023-03-03T03:00:42;100473.71;;;-3.02;71.47
35848;BME280;22332;51.954;20.118;2023-03-03T03:03:48;100483.88;;;-3.08;71.50
35848;BME280;22332;51.954;20.118;2023-03-03T03:06:56;100488.58;;;-3.12;71.58
35848;BME280;22332;51.954;20.118;2023-03-03T03:10:03;100487.45;;;-3.15;71.67
35848;BME280;22332;51.954;20.118;2023-03-03T03:13:10;100488.52;;;-3.20;71.57
35848;BME280;22332;51.954;20.118;2023-03-03T03:16:19;100495.34;;;-3.25;71.74
35848;BME280;22332;51.954;20.118;2023-03-03T03:19:24;100493.83;;;-3.36;71.30
35848;BME280;22332;51.954;20.118;2023-03-03T03:22:30;100493.00;;;-3.42;71.75
35848;BME280;22332;51.954;20.118;2023-03-03T03:25:37;100491.02;;;-3.44;71.71
35848;BME280;22332;51.954;20.118;2023-03-03T03:28:49;100490.23;;;-3.46;71.72
35848;BME280;22332;51.954;20.118;2023-03-03T03:31:55;100493.88;;;-3.46;71.76
35848;BME280;22332;51.954;20.118;2023-03-03T03:35:02;100494.36;;;-3.45;71.78
35848;BME280;22332;51.954;20.118;2023-03-03T03:38:08;100498.09;;;-3.38;72.08
35848;BME280;22332;51.954;20.118;2023-03-03T03:41:14;100498.90;;;-3.32;72.36
35848;BME280;22332;51.954;20.118;2023-03-03T03:44:20;100500.02;;;-3.25;74.13
35848;BME280;22332;51.954;20.118;2023-03-03T03:47:27;100498.27;;;-3.11;75.28
35848;BME280;22332;51.954;20.118;2023-03-03T03:50:35;100494.05;;;-2.92;75.54
35848;BME280;22332;51.954;20.118;2023-03-03T03:53:42;100492.45;;;-2.70;76.48
35848;BME280;22332;51.954;20.118;2023-03-03T03:56:49;100484.55;;;-2.47;76.24
35848;BME280;22332;51.954;20.118;2023-03-03T03:59:56;100475.42;;;-2.21;76.72
35848;BME280;22332;51.954;20.118;2023-03-03T04:03:02;100476.71;;;-1.99;76.91
35848;BME280;22332;51.954;20.118;2023-03-03T04:06:08;100475.80;;;-1.86;77.93
35848;BME280;22332;51.954;20.118;2023-03-03T04:09:14;100475.74;;;-1.77;77.82
35848;BME280;22332;51.954;20.118;2023-03-03T04:12:21;100465.16;;;-1.70;77.52
35848;BME280;22332;51.954;20.118;2023-03-03T04:15:27;100456.96;;;-1.59;77.47
35848;BME280;22332;51.954;20.118;2023-03-03T04:18:32;100445.80;;;-1.47;77.65
35848;BME280;22332;51.954;20.118;2023-03-03T04:21:39;100444.95;;;-1.41;77.44
35848;BME280;22332;51.954;20.118;2023-03-03T04:24:45;100442.64;;;-1.32;77.83
35848;BME280;22332;51.954;20.118;2023-03-03T04:27:52;100445.66;;;-1.22;77.98
35848;BME280;22332;51.954;20.118;2023-03-03T04:30:59;100447.36;;;-1.10;78.34
35848;BME280;22332;51.954;20.118;2023-03-03T04:34:05;100446.14;;;-1.03;78.47
35848;BME280;22332;51.954;20.118;2023-03-03T04:37:11;100446.71;;;-0.93;78.44
35848;BME280;22332;51.954;20.118;2023-03-03T04:40:17;100438.14;;;-0.83;78.23
35848;BME280;22332;51.954;20.118;2023-03-03T04:43:25;100440.57;;;-0.78;78.57
35848;BME280;22332;51.954;20.118;2023-03-03T04:46:31;100438.20;;;-0.76;78.58
35848;BME280;22332;51.954;20.118;2023-03-03T04:49:37;100431.91;;;-0.73;78.41
35848;BME280;22332;51.954;20.118;2023-03-03T04:52:43;100422.83;;;-0.66;78.55
35848;BME280;22332;51.954;20.118;2023-03-03T04:55:51;100425.10;;;-0.66;78.52
35848;BME280;22332;51.954;20.118;2023-03-03T04:58:57;100430.70;;;-0.70;79.41
35848;BME280;22332;51.954;20.118;2023-03-03T05:02:03;100429.68;;;-0.70;79.18
35848;BME280;22332;51.954;20.118;2023-03-03T05:05:10;100434.88;;;-0.66;80.51
35848;BME280;22332;51.954;20.118;2023-03-03T05:08:17;100437.73;;;-0.71;80.79
35848;BME280;22332;51.954;20.118;2023-03-03T05:11:23;100433.23;;;-0.71;81.06
35848;BME280;22332;51.954;20.118;2023-03-03T05:14:28;100423.66;;;-0.66;80.37
35848;BME280;22332;51.954;20.118;2023-03-03T05:17:34;100426.23;;;-0.64;80.58
35848;BME280;22332;51.954;20.118;2023-03-03T05:20:41;100426.81;;;-0.65;80.44
35848;BME280;22332;51.954;20.118;2023-03-03T05:23:47;100416.28;;;-0.61;80.27
35848;BME280;22332;51.954;20.118;2023-03-03T05:26:52;100428.02;;;-0.55;79.95
35848;BME280;22332;51.954;20.118;2023-03-03T05:29:58;100428.73;;;-0.48;80.06
35848;BME280;22332;51.954;20.118;2023-03-03T05:33:04;100433.66;;;-0.38;80.03
35848;BME280;22332;51.954;20.118;2023-03-03T05:36:10;100435.77;;;-0.29;80.06
35848;BME280;22332;51.954;20.118;2023-03-03T05:39:16;100434.63;;;-0.20;79.95
35848;BME280;22332;51.954;20.118;2023-03-03T05:42:22;100436.31;;;-0.15;79.89
35848;BME280;22332;51.954;20.118;2023-03-03T05:45:27;100435.73;;;-0.11;79.81
35848;BME280;22332;51.954;20.118;2023-03-03T05:48:33;100435.55;;;-0.07;79.90
35848;BME280;22332;51.954;20.118;2023-03-03T05:51:39;100437.02;;;-0.06;79.69
35848;BME280;22332;51.954;20.118;2023-03-03T05:54:45;100432.95;;;-0.01;79.73
35848;BME280;22332;51.954;20.118;2023-03-03T05:57:50;100435.58;;;0.02;79.59
35848;BME280;22332;51.954;20.118;2023-03-03T06:00:56;100428.02;;;0.06;79.70
35848;BME280;22332;51.954;20.118;2023-03-03T06:04:02;100437.58;;;0.10;79.89
35848;BME280;22332;51.954;20.118;2023-03-03T06:07:07;100439.88;;;0.16;79.98
35848;BME280;22332;51.954;20.118;2023-03-03T06:10:13;100436.27;;;0.25;79.84
35848;BME280;22332;51.954;20.118;2023-03-03T06:13:19;100438.09;;;0.37;79.81
35848;BME280;22332;51.954;20.118;2023-03-03T06:16:25;100436.00;;;0.43;79.92
35848;BME280;22332;51.954;20.118;2023-03-03T06:19:31;100434.27;;;0.46;79.93
35848;BME280;22332;51.954;20.118;2023-03-03T06:22:36;100436.16;;;0.50;79.92
35848;BME280;22332;51.954;20.118;2023-03-03T06:25:42;100437.02;;;0.53;79.93
35848;BME280;22332;51.954;20.118;2023-03-03T06:28:48;100440.02;;;0.56;80.05
35848;BME280;22332;51.954;20.118;2023-03-03T06:31:57;100436.84;;;0.63;80.05
35848;BME280;22332;51.954;20.118;2023-03-03T06:35:03;100430.81;;;0.68;79.97
35848;BME280;22332;51.954;20.118;2023-03-03T06:38:09;100425.90;;;0.74;80.01
35848;BME280;22332;51.954;20.118;2023-03-03T06:41:15;100430.52;;;0.82;80.15
35848;BME280;22332;51.954;20.118;2023-03-03T06:44:20;100430.36;;;0.82;80.21
35848;BME280;22332;51.954;20.118;2023-03-03T06:47:26;100421.94;;;0.85;80.30
35848;BME280;22332;51.954;20.118;2023-03-03T06:50:32;100426.77;;;0.93;80.04
35848;BME280;22332;51.954;20.118;2023-03-03T06:53:38;100429.95;;;0.95;80.07
35848;BME280;22332;51.954;20.118;2023-03-03T06:56:44;100429.18;;;0.84;80.16
35848;BME280;22332;51.954;20.118;2023-03-03T06:59:53;100444.70;;;0.66;80.48
35848;BME280;22332;51.954;20.118;2023-03-03T07:03:01;100446.70;;;0.58;80.83
35848;BME280;22332;51.954;20.118;2023-03-03T07:06:22;100441.33;;;0.58;80.61
35848;BME280;22332;51.954;20.118;2023-03-03T07:09:29;100435.31;;;0.55;81.40
35848;BME280;22332;51.954;20.118;2023-03-03T07:12:35;100439.18;;;0.55;81.04
35848;BME280;22332;51.954;20.118;2023-03-03T07:15:41;100435.98;;;0.59;81.22
35848;BME280;22332;51.954;20.118;2023-03-03T07:18:51;100434.11;;;0.65;81.21
35848;BME280;22332;51.954;20.118;2023-03-03T07:21:58;100423.86;;;0.73;81.27
35848;BME280;22332;51.954;20.118;2023-03-03T07:25:20;100409.54;;;0.78;81.01
35848;BME280;22332;51.954;20.118;2023-03-03T07:28:28;100412.22;;;0.93;80.86
35848;BME280;22332;51.954;20.118;2023-03-03T07:31:36;100419.10;;;1.01;80.82
35848;BME280;22332;51.954;20.118;2023-03-03T07:34:45;100409.72;;;1.03;80.59
35848;BME280;22332;51.954;20.118;2023-03-03T07:37:52;100405.74;;;1.11;80.54
35848;BME280;22332;51.954;20.118;2023-03-03T07:40:59;100414.02;;;1.10;80.53
35848;BME280;22332;51.954;20.118;2023-03-03T07:44:20;100410.55;;;1.10;80.66
35848;BME280;22332;51.954;20.118;2023-03-03T07:47:27;100423.25;;;1.11;80.96
35848;BME280;22332;51.954;20.118;2023-03-03T07:50:34;100416.59;;;1.14;80.75
35848;BME280;22332;51.954;20.118;2023-03-03T07:53:40;100416.65;;;1.19;80.69
35848;BME280;22332;51.954;20.118;2023-03-03T07:56:46;100417.88;;;1.32;80.76
35848;BME280;22332;51.954;20.118;2023-03-03T07:59:54;100417.10;;;1.39;80.65
35848;BME280;22332;51.954;20.118;2023-03-03T08:03:08;100417.37;;;1.46;80.53
35848;BME280;22332;51.954;20.118;2023-03-03T08:06:34;100430.31;;;1.52;80.49
35848;BME280;22332;51.954;20.118;2023-03-03T08:09:43;100429.10;;;1.52;80.26
35848;BME280;22332;51.954;20.118;2023-03-03T08:12:51;100423.59;;;1.57;80.48
35848;BME280;22332;51.954;20.118;2023-03-03T08:16:01;100418.70;;;1.59;80.36
35848;BME280;22332;51.954;20.118;2023-03-03T08:19:09;100414.94;;;1.69;80.50
35848;BME280;22332;51.954;20.118;2023-03-03T08:22:19;100418.27;;;1.87;80.50
35848;BME280;22332;51.954;20.118;2023-03-03T08:25:29;100421.73;;;1.99;80.44
35848;BME280;22332;51.954;20.118;2023-03-03T08:28:35;100423.79;;;2.06;80.24
35848;BME280;22332;51.954;20.118;2023-03-03T08:31:40;100426.02;;;2.09;80.37
35848;BME280;22332;51.954;20.118;2023-03-03T08:34:46;100434.81;;;2.15;80.04
35848;BME280;22332;51.954;20.118;2023-03-03T08:37:52;100437.52;;;2.19;79.89
35848;BME280;22332;51.954;20.118;2023-03-03T08:40:58;100443.20;;;2.12;79.69
35848;BME280;22332;51.954;20.118;2023-03-03T08:44:04;100453.12;;;2.02;79.96
35848;BME280;22332;51.954;20.118;2023-03-03T08:47:09;100452.94;;;2.08;80.04
35848;BME280;22332;51.954;20.118;2023-03-03T08:50:16;100444.38;;;2.13;80.10
35848;BME280;22332;51.954;20.118;2023-03-03T08:53:22;100434.42;;;2.24;80.09
35848;BME280;22332;51.954;20.118;2023-03-03T08:56:28;100435.14;;;2.34;79.75
35848;BME280;22332;51.954;20.118;2023-03-03T08:59:34;100437.15;;;2.36;79.18
35848;BME280;22332;51.954;20.118;2023-03-03T09:02:42;100438.31;;;2.32;79.03
35848;BME280;22332;51.954;20.118;2023-03-03T09:05:48;100445.78;;;2.17;79.25
35848;BME280;22332;51.954;20.118;2023-03-03T09:08:54;100442.83;;;2.19;79.18
35848;BME280;22332;51.954;20.118;2023-03-03T09:12:05;100438.72;;;2.08;79.07
35848;BME280;22332;51.954;20.118;2023-03-03T09:15:21;100437.08;;;1.95;79.45
35848;BME280;22332;51.954;20.118;2023-03-03T09:18:34;100441.73;;;1.87;79.77
35848;BME280;22332;51.954;20.118;2023-03-03T09:21:41;100445.42;;;1.96;79.55
35848;BME280;22332;51.954;20.118;2023-03-03T09:24:48;100447.13;;;2.06;79.68
35848;BME280;22332;51.954;20.118;2023-03-03T09:27:55;100444.99;;;2.18;79.83
35848;BME280;22332;51.954;20.118;2023-03-03T09:31:01;100456.46;;;2.28;79.53
35848;BME280;22332;51.954;20.118;2023-03-03T09:34:18;100457.73;;;2.24;79.22
35848;BME280;22332;51.954;20.118;2023-03-03T09:37:27;100458.10;;;2.13;79.49
35848;BME280;22332;51.954;20.118;2023-03-03T09:40:50;100453.39;;;2.04;79.62
35848;BME280;22332;51.954;20.118;2023-03-03T09:44:12;100450.79;;;1.98;79.39
35848;BME280;22332;51.954;20.118;2023-03-03T09:47:33;100444.29;;;1.94;79.56
35848;BME280;22332;51.954;20.118;2023-03-03T09:50:51;100448.96;;;1.87;79.37
35848;BME280;22332;51.954;20.118;2023-03-03T09:54:10;100453.11;;;1.85;79.41
35848;BME280;22332;51.954;20.118;2023-03-03T09:57:23;100455.45;;;1.69;79.18
35848;BME280;22332;51.954;20.118;2023-03-03T10:00:42;100451.14;;;1.59;79.51
35848;BME280;22332;51.954;20.118;2023-03-03T10:03:58;100448.48;;;1.48;79.68
35848;BME280;22332;51.954;20.118;2023-03-03T10:07:18;100449.65;;;1.52;80.01
35848;BME280;22332;51.954;20.118;2023-03-03T10:10:38;100447.95;;;1.66;79.74
35848;BME280;22332;51.954;20.118;2023-03-03T10:14:05;100443.55;;;1.63;79.74
35848;BME280;22332;51.954;20.118;2023-03-03T10:17:29;100437.58;;;1.61;79.86
35848;BME280;22332;51.954;20.118;2023-03-03T10:20:57;100432.48;;;1.58;80.00
35848;BME280;22332;51.954;20.118;2023-03-03T10:24:18;100425.91;;;1.59;79.80
35848;BME280;22332;51.954;20.118;2023-03-03T10:27:40;100431.23;;;1.52;79.60
35848;BME280;22332;51.954;20.118;2023-03-03T10:30:53;100432.13;;;1.51;79.85
35848;BME280;22332;51.954;20.118;2023-03-03T10:34:20;100427.66;;;1.53;79.58
35848;BME280;22332;51.954;20.118;2023-03-03T10:37:38;100425.90;;;1.59;79.87
35848;BME280;22332;51.954;20.118;2023-03-03T10:40:52;100422.30;;;1.75;79.73
35848;BME280;22332;51.954;20.118;2023-03-03T10:44:15;100420.89;;;1.84;79.57
35848;BME280;22332;51.954;20.118;2023-03-03T10:47:48;100413.43;;;1.83;79.13
35848;BME280;22332;51.954;20.118;2023-03-03T10:51:06;100422.02;;;1.65;79.30
35848;BME280;22332;51.954;20.118;2023-03-03T10:54:29;100430.95;;;1.51;79.50
35848;BME280;22332;51.954;20.118;2023-03-03T10:57:44;100435.63;;;1.46;79.51
35848;BME280;22332;51.954;20.118;2023-03-03T11:01:03;100433.56;;;1.33;79.61
35848;BME280;22332;51.954;20.118;2023-03-03T11:04:28;100433.41;;;1.33;79.78
35848;BME280;22332;51.954;20.118;2023-03-03T11:07:39;100430.98;;;1.35;80.01
35848;BME280;22332;51.954;20.118;2023-03-03T11:10:53;100425.67;;;1.36;80.07
35848;BME280;22332;51.954;20.118;2023-03-03T11:14:09;100427.77;;;1.36;80.09
35848;BME280;22332;51.954;20.118;2023-03-03T11:17:22;100418.56;;;1.26;80.27
35848;BME280;22332;51.954;20.118;2023-03-03T11:20:37;100420.57;;;1.28;80.37
35848;BME280;22332;51.954;20.118;2023-03-03T11:24:14;100425.69;;;1.36;80.10
35848;BME280;22332;51.954;20.118;2023-03-03T11:27:35;100428.77;;;1.47;80.07
35848;BME280;22332;51.954;20.118;2023-03-03T11:30:52;100426.03;;;1.48;79.96
35848;BME280;22332;51.954;20.118;2023-03-03T11:34:09;100426.70;;;1.40;80.25
35848;BME280;22332;51.954;20.118;2023-03-03T11:37:23;100430.36;;;1.19;80.84
35848;BME280;22332;51.954;20.118;2023-03-03T11:40:35;100432.40;;;1.17;80.67
35848;BME280;22332;51.954;20.118;2023-03-03T11:43:48;100433.25;;;1.24;80.49
35848;BME280;22332;51.954;20.118;2023-03-03T11:46:58;100432.79;;;1.37;80.56
35848;BME280;22332;51.954;20.118;2023-03-03T11:50:13;100427.85;;;1.41;80.21
35848;BME280;22332;51.954;20.118;2023-03-03T11:53:33;100428.63;;;1.43;80.15
35848;BME280;22332;51.954;20.118;2023-03-03T11:56:43;100427.09;;;1.39;80.39
35848;BME280;22332;51.954;20.118;2023-03-03T11:59:56;100411.88;;;1.26;80.38
35848;BME280;22332;51.954;20.118;2023-03-03T12:03:15;100411.88;;;1.14;81.01
35848;BME280;22332;51.954;20.118;2023-03-03T12:06:29;100413.55;;;0.97;81.14
35848;BME280;22332;51.954;20.118;2023-03-03T12:09:40;100410.05;;;0.91;81.44
35848;BME280;22332;51.954;20.118;2023-03-03T12:12:53;100405.23;;;0.99;81.33
35848;BME280;22332;51.954;20.118;2023-03-03T12:16:10;100412.27;;;1.04;81.47
35848;BME280;22332;51.954;20.118;2023-03-03T12:19:26;100405.86;;;1.06;81.31
35848;BME280;22332;51.954;20.118;2023-03-03T12:22:37;100403.37;;;1.09;81.09
35848;BME280;22332;51.954;20.118;2023-03-03T12:25:46;100402.39;;;1.14;81.12
35848;BME280;22332;51.954;20.118;2023-03-03T12:28:57;100401.40;;;1.20;80.92
35848;BME280;22332;51.954;20.118;2023-03-03T12:32:16;100399.36;;;1.24;80.63
35848;BME280;22332;51.954;20.118;2023-03-03T12:35:30;100398.56;;;1.20;80.84
35848;BME280;22332;51.954;20.118;2023-03-03T12:38:45;100406.67;;;1.07;81.01
35848;BME280;22332;51.954;20.118;2023-03-03T12:41:52;100405.79;;;0.95;81.67
35848;BME280;22332;51.954;20.118;2023-03-03T12:45:17;100408.23;;;0.95;81.76
35848;BME280;22332;51.954;20.118;2023-03-03T12:48:33;100414.52;;;0.83;81.98
35848;BME280;22332;51.954;20.118;2023-03-03T12:51:50;100418.50;;;0.74;82.04
35848;BME280;22332;51.954;20.118;2023-03-03T12:55:12;100419.33;;;0.66;82.13
35848;BME280;22332;51.954;20.118;2023-03-03T12:58:32;100412.66;;;0.66;82.00
35848;BME280;22332;51.954;20.118;2023-03-03T13:01:55;100414.77;;;0.75;81.91
35848;BME280;22332;51.954;20.118;2023-03-03T13:05:17;100419.13;;;0.86;81.72
35848;BME280;22332;51.954;20.118;2023-03-03T13:08:44;100417.14;;;0.74;82.13
35848;BME280;22332;51.954;20.118;2023-03-03T13:12:02;100426.68;;;0.63;82.61
35848;BME280;22332;51.954;20.118;2023-03-03T13:15:15;100421.91;;;0.41;83.32
35848;BME280;22332;51.954;20.118;2023-03-03T13:18:33;100421.15;;;0.33;83.48
35848;BME280;22332;51.954;20.118;2023-03-03T13:21:48;100417.79;;;0.30;83.60
35848;BME280;22332;51.954;20.118;2023-03-03T13:25:01;100414.81;;;0.37;83.18
35848;BME280;22332;51.954;20.118;2023-03-03T13:28:06;100413.27;;;0.39;83.60
35848;BME280;22332;51.954;20.118;2023-03-03T13:31:19;100404.30;;;0.37;83.66
35848;BME280;22332;51.954;20.118;2023-03-03T13:34:34;100401.67;;;0.37;83.24
35848;BME280;22332;51.954;20.118;2023-03-03T13:37:45;100402.49;;;0.41;82.99
35848;BME280;22332;51.954;20.118;2023-03-03T13:40:56;100401.11;;;0.48;82.72
35848;BME280;22332;51.954;20.118;2023-03-03T13:44:10;100399.59;;;0.53;82.75
35848;BME280;22332;51.954;20.118;2023-03-03T13:47:22;100405.16;;;0.47;83.08
35848;BME280;22332;51.954;20.118;2023-03-03T13:50:34;100394.62;;;0.35;83.44
35848;BME280;22332;51.954;20.118;2023-03-03T13:53:51;100390.25;;;0.41;83.16
35848;BME280;22332;51.954;20.118;2023-03-03T13:57:17;100391.55;;;0.40;83.00
35848;BME280;22332;51.954;20.118;2023-03-03T14:00:33;100398.48;;;0.45;82.92
35848;BME280;22332;51.954;20.118;2023-03-03T14:03:50;100393.14;;;0.43;82.74
35848;BME280;22332;51.954;20.118;2023-03-03T14:07:06;100392.52;;;0.48;82.89
35848;BME280;22332;51.954;20.118;2023-03-03T14:10:20;100387.67;;;0.50;82.75
35848;BME280;22332;51.954;20.118;2023-03-03T14:13:32;100385.22;;;0.56;82.63
35848;BME280;22332;51.954;20.118;2023-03-03T14:16:50;100381.82;;;0.54;82.46
35848;BME280;22332;51.954;20.118;2023-03-03T14:20:05;100381.86;;;0.54;82.40
35848;BME280;22332;51.954;20.118;2023-03-03T14:23:19;100377.98;;;0.54;82.52
35848;BME280;22332;51.954;20.118;2023-03-03T14:26:27;100377.53;;;0.59;82.50
35848;BME280;22332;51.954;20.118;2023-03-03T14:29:34;100377.64;;;0.57;82.27
35848;BME280;22332;51.954;20.118;2023-03-03T14:32:40;100376.74;;;0.64;82.37
35848;BME280;22332;51.954;20.118;2023-03-03T14:35:59;100370.59;;;0.70;82.16
35848;BME280;22332;51.954;20.118;2023-03-03T14:39:31;100378.30;;;0.73;81.98
35848;BME280;22332;51.954;20.118;2023-03-03T14:42:44;100374.23;;;0.71;81.78
35848;BME280;22332;51.954;20.118;2023-03-03T14:45:52;100371.14;;;0.57;81.69
35848;BME280;22332;51.954;20.118;2023-03-03T14:49:00;100372.90;;;0.51;82.25
35848;BME280;22332;51.954;20.118;2023-03-03T14:52:19;100375.74;;;0.35;82.40
35848;BME280;22332;51.954;20.118;2023-03-03T14:55:35;100369.83;;;0.24;82.51
35848;BME280;22332;51.954;20.118;2023-03-03T14:58:42;100373.92;;;0.32;82.50
35848;BME280;22332;51.954;20.118;2023-03-03T15:01:50;100367.18;;;0.47;82.44
35848;BME280;22332;51.954;20.118;2023-03-03T15:05:21;100357.91;;;0.62;82.32
35848;BME280;22332;51.954;20.118;2023-03-03T15:08:32;100354.62;;;0.65;82.18
35848;BME280;22332;51.954;20.118;2023-03-03T15:11:39;100359.67;;;0.65;82.17
35848;BME280;22332;51.954;20.118;2023-03-03T15:14:45;100358.86;;;0.61;82.01
35848;BME280;22332;51.954;20.118;2023-03-03T15:17:57;100362.09;;;0.57;81.99
35848;BME280;22332;51.954;20.118;2023-03-03T15:21:08;100361.08;;;0.43;82.16
35848;BME280;22332;51.954;20.118;2023-03-03T15:24:17;100352.23;;;0.39;82.12
35848;BME280;22332;51.954;20.118;2023-03-03T15:27:30;100347.65;;;0.39;82.27
35848;BME280;22332;51.954;20.118;2023-03-03T15:30:43;100344.96;;;0.47;82.35
35848;BME280;22332;51.954;20.118;2023-03-03T15:34:06;100344.05;;;0.51;82.38
35848;BME280;22332;51.954;20.118;2023-03-03T15:37:29;100338.78;;;0.51;82.13
35848;BME280;22332;51.954;20.118;2023-03-03T15:40:41;100344.05;;;0.44;82.13
35848;BME280;22332;51.954;20.118;2023-03-03T15:43:51;100352.41;;;0.39;82.33
35848;BME280;22332;51.954;20.118;2023-03-03T15:47:14;100353.32;;;0.26;82.62
35848;BME280;22332;51.954;20.118;2023-03-03T15:50:44;100352.47;;;0.16;82.52
35848;BME280;22332;51.954;20.118;2023-03-03T15:54:12;100355.25;;;0.12;82.63
35848;BME280;22332;51.954;20.118;2023-03-03T15:57:31;100356.98;;;0.16;82.61
35848;BME280;22332;51.954;20.118;2023-03-03T16:00:52;100358.46;;;0.18;82.45
35848;BME280;22332;51.954;20.118;2023-03-03T16:04:05;100364.20;;;0.19;82.67
35848;BME280;22332;51.954;20.118;2023-03-03T16:07:27;100362.81;;;0.15;82.45
35848;BME280;22332;51.954;20.118;2023-03-03T16:10:42;100364.42;;;0.08;82.45
35848;BME280;22332;51.954;20.118;2023-03-03T16:14:00;100363.98;;;-0.03;82.86
35848;BME280;22332;51.954;20.118;2023-03-03T16:17:16;100366.23;;;-0.13;82.80
35848;BME280;22332;51.954;20.118;2023-03-03T16:20:28;100367.09;;;-0.12;82.89
35848;BME280;22332;51.954;20.118;2023-03-03T16:23:41;100365.61;;;-0.04;82.59
35848;BME280;22332;51.954;20.118;2023-03-03T16:26:55;100364.70;;;0.10;82.34
35848;BME280;22332;51.954;20.118;2023-03-03T16:30:16;100358.95;;;0.09;82.31
35848;BME280;22332;51.954;20.118;2023-03-03T16:33:34;100360.10;;;0.04;82.29